sensor_id;sensor_type;location;lat;lon;timestamp;P1;durP1;ratioP1;P2;durP2;ratioP2
12871;SDS011;6504;53.766;9.626;2023-07-16T00:01:28;3.50;;;2.10;;
12871;SDS011;6504;53.766;9.626;2023-07-16T00:03:57;3.83;;;1.83;;
12871;SDS011;6504;53.766;9.626;2023-07-16T00:06:26;2.90;;;2.20;;
12871;SDS011;6504;53.766;9.626;2023-07-16T00:08:54;3.53;;;2.00;;
12871;SDS011;6504;53.766;9.626;2023-07-16T00:11:22;4.93;;;2.40;;
12871;SDS011;6504;53.766;9.626;2023-07-16T00:13:50;3.17;;;1.90;;
12871;SDS011;6504;53.766;9.626;2023-07-16T00:16:18;3.50;;;1.80;;
12871;SDS011;6504;53.766;9.626;2023-07-16T00:18:46;6.53;;;2.00;;
12871;SDS011;6504;53.766;9.626;2023-07-16T00:21:16;3.40;;;2.20;;
12871;SDS011;6504;53.766;9.626;2023-07-16T00:23:44;2.50;;;2.10;;
12871;SDS011;6504;53.766;9.626;2023-07-16T00:26:12;2.97;;;1.90;;
12871;SDS011;6504;53.766;9.626;2023-07-16T00:28:41;3.17;;;2.00;;
12871;SDS011;6504;53.766;9.626;2023-07-16T00:31:09;2.43;;;2.00;;
12871;SDS011;6504;53.766;9.626;2023-07-16T00:33:37;2.73;;;2.00;;
12871;SDS011;6504;53.766;9.626;2023-07-16T00:36:05;1.80;;;1.70;;
12871;SDS011;6504;53.766;9.626;2023-07-16T00:38:35;3.13;;;1.90;;
12871;SDS011;6504;53.766;9.626;2023-07-16T00:41:03;3.60;;;2.10;;
12871;SDS011;6504;53.766;9.626;2023-07-16T00:43:31;3.70;;;2.17;;
12871;SDS011;6504;53.766;9.626;2023-07-16T00:45:59;5.10;;;2.27;;
12871;SDS011;6504;53.766;9.626;2023-07-16T00:48:27;4.20;;;2.30;;
12871;SDS011;6504;53.766;9.626;2023-07-16T00:50:56;5.03;;;2.27;;
12871;SDS011;6504;53.766;9.626;2023-07-16T00:53:24;5.33;;;1.90;;
12871;SDS011;6504;53.766;9.626;2023-07-16T00:55:54;3.90;;;2.23;;
12871;SDS011;6504;53.766;9.626;2023-07-16T00:58:22;4.97;;;2.57;;
12871;SDS011;6504;53.766;9.626;2023-07-16T01:00:50;3.63;;;2.23;;
12871;SDS011;6504;53.766;9.626;2023-07-16T01:03:18;3.23;;;2.03;;
12871;SDS011;6504;53.766;9.626;2023-07-16T01:05:47;2.60;;;1.70;;
12871;SDS011;6504;53.766;9.626;2023-07-16T01:08:22;6.07;;;2.27;;
12871;SDS011;6504;53.766;9.626;2023-07-16T01:10:59;2.93;;;1.70;;
12871;SDS011;6504;53.766;9.626;2023-07-16T01:13:31;3.43;;;2.07;;
12871;SDS011;6504;53.766;9.626;2023-07-16T01:15:59;4.10;;;1.90;;
12871;SDS011;6504;53.766;9.626;2023-07-16T01:18:28;4.03;;;2.30;;
12871;SDS011;6504;53.766;9.626;2023-07-16T01:20:56;2.90;;;2.10;;
12871;SDS011;6504;53.766;9.626;2023-07-16T01:23:26;2.77;;;1.80;;
12871;SDS011;6504;53.766;9.626;2023-07-16T01:26:11;3.13;;;2.00;;
12871;SDS011;6504;53.766;9.626;2023-07-16T01:29:08;3.40;;;2.17;;
12871;SDS011;6504;53.766;9.626;2023-07-16T01:31:48;3.97;;;1.90;;
12871;SDS011;6504;53.766;9.626;2023-07-16T01:34:18;2.43;;;2.00;;
12871;SDS011;6504;53.766;9.626;2023-07-16T01:36:47;3.50;;;2.10;;
12871;SDS011;6504;53.766;9.626;2023-07-16T01:39:16;4.00;;;2.30;;
12871;SDS011;6504;53.766;9.626;2023-07-16T01:41:45;4.43;;;1.80;;
12871;SDS011;6504;53.766;9.626;2023-07-16T01:44:15;4.00;;;1.93;;
12871;SDS011;6504;53.766;9.626;2023-07-16T01:46:43;2.43;;;2.20;;
12871;SDS011;6504;53.766;9.626;2023-07-16T01:49:11;2.50;;;1.93;;
12871;SDS011;6504;53.766;9.626;2023-07-16T01:51:39;3.53;;;2.00;;
12871;SDS011;6504;53.766;9.626;2023-07-16T01:54:08;4.10;;;1.97;;
12871;SDS011;6504;53.766;9.626;2023-07-16T01:56:36;3.80;;;2.10;;
12871;SDS011;6504;53.766;9.626;2023-07-16T01:59:04;2.90;;;2.07;;
12871;SDS011;6504;53.766;9.626;2023-07-16T02:01:33;3.47;;;2.00;;
12871;SDS011;6504;53.766;9.626;2023-07-16T02:04:01;4.87;;;2.23;;
12871;SDS011;6504;53.766;9.626;2023-07-16T02:06:29;2.80;;;1.97;;
12871;SDS011;6504;53.766;9.626;2023-07-16T02:08:57;3.37;;;2.00;;
12871;SDS011;6504;53.766;9.626;2023-07-16T02:11:25;2.93;;;1.73;;
12871;SDS011;6504;53.766;9.626;2023-07-16T02:13:54;2.70;;;1.80;;
12871;SDS011;6504;53.766;9.626;2023-07-16T02:16:22;4.07;;;1.83;;
12871;SDS011;6504;53.766;9.626;2023-07-16T02:18:51;3.93;;;2.13;;
12871;SDS011;6504;53.766;9.626;2023-07-16T02:21:19;4.00;;;2.30;;
12871;SDS011;6504;53.766;9.626;2023-07-16T02:23:47;4.27;;;2.00;;
12871;SDS011;6504;53.766;9.626;2023-07-16T02:26:16;4.03;;;2.13;;
12871;SDS011;6504;53.766;9.626;2023-07-16T02:28:44;3.47;;;2.07;;
12871;SDS011;6504;53.766;9.626;2023-07-16T02:31:12;3.70;;;1.90;;
12871;SDS011;6504;53.766;9.626;2023-07-16T02:33:40;3.53;;;1.90;;
12871;SDS011;6504;53.766;9.626;2023-07-16T02:36:09;5.23;;;2.30;;
12871;SDS011;6504;53.766;9.626;2023-07-16T02:38:37;3.70;;;2.17;;
12871;SDS011;6504;53.766;9.626;2023-07-16T02:41:05;3.67;;;1.90;;
12871;SDS011;6504;53.766;9.626;2023-07-16T02:43:33;3.53;;;2.17;;
12871;SDS011;6504;53.766;9.626;2023-07-16T02:46:01;5.27;;;2.17;;
12871;SDS011;6504;53.766;9.626;2023-07-16T02:48:29;3.20;;;2.20;;
12871;SDS011;6504;53.766;9.626;2023-07-16T02:50:57;3.90;;;2.20;;
12871;SDS011;6504;53.766;9.626;2023-07-16T02:53:27;5.20;;;2.20;;
12871;SDS011;6504;53.766;9.626;2023-07-16T02:55:55;3.47;;;2.20;;
12871;SDS011;6504;53.766;9.626;2023-07-16T02:58:23;4.23;;;2.47;;
12871;SDS011;6504;53.766;9.626;2023-07-16T03:00:51;4.30;;;2.30;;
12871;SDS011;6504;53.766;9.626;2023-07-16T03:03:19;2.10;;;1.80;;
12871;SDS011;6504;53.766;9.626;2023-07-16T03:05:47;2.43;;;2.10;;
12871;SDS011;6504;53.766;9.626;2023-07-16T03:08:15;3.30;;;2.43;;
12871;SDS011;6504;53.766;9.626;2023-07-16T03:10:44;4.00;;;2.50;;
12871;SDS011;6504;53.766;9.626;2023-07-16T03:13:12;3.23;;;2.10;;
12871;SDS011;6504;53.766;9.626;2023-07-16T03:15:40;4.60;;;2.10;;
12871;SDS011;6504;53.766;9.626;2023-07-16T03:18:08;3.90;;;2.10;;
12871;SDS011;6504;53.766;9.626;2023-07-16T03:20:36;3.73;;;2.40;;
12871;SDS011;6504;53.766;9.626;2023-07-16T03:23:05;2.87;;;2.13;;
12871;SDS011;6504;53.766;9.626;2023-07-16T03:25:33;4.53;;;2.43;;
12871;SDS011;6504;53.766;9.626;2023-07-16T03:28:02;4.57;;;2.50;;
12871;SDS011;6504;53.766;9.626;2023-07-16T03:30:30;3.50;;;2.00;;
12871;SDS011;6504;53.766;9.626;2023-07-16T03:32:59;3.70;;;2.50;;
12871;SDS011;6504;53.766;9.626;2023-07-16T03:35:27;8.90;;;2.60;;
12871;SDS011;6504;53.766;9.626;2023-07-16T03:37:55;5.00;;;2.33;;
12871;SDS011;6504;53.766;9.626;2023-07-16T03:40:24;5.20;;;2.57;;
12871;SDS011;6504;53.766;9.626;2023-07-16T03:42:53;6.30;;;2.50;;
12871;SDS011;6504;53.766;9.626;2023-07-16T03:45:23;5.33;;;2.20;;
12871;SDS011;6504;53.766;9.626;2023-07-16T03:47:51;6.70;;;2.53;;
12871;SDS011;6504;53.766;9.626;2023-07-16T03:50:19;5.73;;;2.47;;
12871;SDS011;6504;53.766;9.626;2023-07-16T03:52:47;5.73;;;2.43;;
12871;SDS011;6504;53.766;9.626;2023-07-16T03:55:16;5.47;;;2.43;;
12871;SDS011;6504;53.766;9.626;2023-07-16T03:57:44;5.83;;;2.63;;
12871;SDS011;6504;53.766;9.626;2023-07-16T04:00:12;5.50;;;2.63;;
12871;SDS011;6504;53.766;9.626;2023-07-16T04:02:41;5.20;;;2.53;;
12871;SDS011;6504;53.766;9.626;2023-07-16T04:05:10;8.97;;;2.90;;
12871;SDS011;6504;53.766;9.626;2023-07-16T04:07:38;7.87;;;2.70;;
12871;SDS011;6504;53.766;9.626;2023-07-16T04:10:06;6.77;;;2.73;;
12871;SDS011;6504;53.766;9.626;2023-07-16T04:12:35;5.40;;;2.73;;
12871;SDS011;6504;53.766;9.626;2023-07-16T04:15:06;6.90;;;3.10;;
12871;SDS011;6504;53.766;9.626;2023-07-16T04:17:36;5.93;;;2.83;;
12871;SDS011;6504;53.766;9.626;2023-07-16T04:20:06;4.17;;;2.70;;
12871;SDS011;6504;53.766;9.626;2023-07-16T04:22:35;4.20;;;2.17;;
12871;SDS011;6504;53.766;9.626;2023-07-16T04:25:03;6.03;;;2.93;;
12871;SDS011;6504;53.766;9.626;2023-07-16T04:27:32;4.93;;;2.70;;
12871;SDS011;6504;53.766;9.626;2023-07-16T04:30:00;5.50;;;2.70;;
12871;SDS011;6504;53.766;9.626;2023-07-16T04:32:28;6.90;;;2.67;;
12871;SDS011;6504;53.766;9.626;2023-07-16T04:34:56;4.73;;;2.40;;
12871;SDS011;6504;53.766;9.626;2023-07-16T04:37:25;5.87;;;2.47;;
12871;SDS011;6504;53.766;9.626;2023-07-16T04:39:53;4.57;;;2.70;;
12871;SDS011;6504;53.766;9.626;2023-07-16T04:42:21;4.70;;;3.10;;
12871;SDS011;6504;53.766;9.626;2023-07-16T04:44:49;6.17;;;2.73;;
12871;SDS011;6504;53.766;9.626;2023-07-16T04:47:17;4.50;;;2.63;;
12871;SDS011;6504;53.766;9.626;2023-07-16T04:49:45;5.27;;;2.43;;
12871;SDS011;6504;53.766;9.626;2023-07-16T04:52:13;6.27;;;2.60;;
12871;SDS011;6504;53.766;9.626;2023-07-16T04:54:43;7.97;;;2.53;;
12871;SDS011;6504;53.766;9.626;2023-07-16T04:57:11;5.97;;;2.73;;
12871;SDS011;6504;53.766;9.626;2023-07-16T04:59:39;6.00;;;2.90;;
12871;SDS011;6504;53.766;9.626;2023-07-16T05:02:07;4.07;;;2.50;;
12871;SDS011;6504;53.766;9.626;2023-07-16T05:04:35;4.20;;;2.40;;
12871;SDS011;6504;53.766;9.626;2023-07-16T05:07:03;4.03;;;2.63;;
12871;SDS011;6504;53.766;9.626;2023-07-16T05:09:31;5.00;;;2.60;;
12871;SDS011;6504;53.766;9.626;2023-07-16T05:12:01;5.40;;;2.70;;
12871;SDS011;6504;53.766;9.626;2023-07-16T05:14:29;4.10;;;2.40;;
12871;SDS011;6504;53.766;9.626;2023-07-16T05:16:57;4.90;;;2.80;;
12871;SDS011;6504;53.766;9.626;2023-07-16T05:19:25;6.17;;;2.97;;
12871;SDS011;6504;53.766;9.626;2023-07-16T05:21:53;6.03;;;2.57;;
12871;SDS011;6504;53.766;9.626;2023-07-16T05:24:21;5.20;;;2.50;;
12871;SDS011;6504;53.766;9.626;2023-07-16T05:26:49;5.23;;;2.20;;
12871;SDS011;6504;53.766;9.626;2023-07-16T05:29:22;4.37;;;2.43;;
12871;SDS011;6504;53.766;9.626;2023-07-16T05:31:50;5.50;;;2.70;;
12871;SDS011;6504;53.766;9.626;2023-07-16T05:34:18;5.20;;;2.83;;
12871;SDS011;6504;53.766;9.626;2023-07-16T05:36:46;6.13;;;2.43;;
12871;SDS011;6504;53.766;9.626;2023-07-16T05:39:14;4.30;;;2.50;;
12871;SDS011;6504;53.766;9.626;2023-07-16T05:41:42;4.73;;;2.90;;
12871;SDS011;6504;53.766;9.626;2023-07-16T05:44:10;5.77;;;2.70;;
12871;SDS011;6504;53.766;9.626;2023-07-16T05:46:39;5.10;;;2.73;;
12871;SDS011;6504;53.766;9.626;2023-07-16T05:49:08;6.63;;;2.67;;
12871;SDS011;6504;53.766;9.626;2023-07-16T05:51:36;7.40;;;2.87;;
12871;SDS011;6504;53.766;9.626;2023-07-16T05:54:04;4.27;;;2.60;;
12871;SDS011;6504;53.766;9.626;2023-07-16T05:56:32;3.60;;;2.33;;
12871;SDS011;6504;53.766;9.626;2023-07-16T05:59:00;5.53;;;3.03;;
12871;SDS011;6504;53.766;9.626;2023-07-16T06:01:28;5.03;;;2.60;;
12871;SDS011;6504;53.766;9.626;2023-07-16T06:03:58;5.23;;;2.77;;
12871;SDS011;6504;53.766;9.626;2023-07-16T06:06:26;4.07;;;2.73;;
12871;SDS011;6504;53.766;9.626;2023-07-16T06:08:55;5.40;;;3.00;;
12871;SDS011;6504;53.766;9.626;2023-07-16T06:11:23;7.33;;;3.03;;
12871;SDS011;6504;53.766;9.626;2023-07-16T06:13:53;3.67;;;2.90;;
12871;SDS011;6504;53.766;9.626;2023-07-16T06:16:21;6.33;;;2.73;;
12871;SDS011;6504;53.766;9.626;2023-07-16T06:18:50;4.43;;;3.03;;
12871;SDS011;6504;53.766;9.626;2023-07-16T06:21:19;6.60;;;3.50;;
12871;SDS011;6504;53.766;9.626;2023-07-16T06:23:47;6.73;;;3.57;;
12871;SDS011;6504;53.766;9.626;2023-07-16T06:26:15;5.83;;;3.40;;
12871;SDS011;6504;53.766;9.626;2023-07-16T06:28:43;8.37;;;3.70;;
12871;SDS011;6504;53.766;9.626;2023-07-16T06:31:15;6.40;;;3.63;;
12871;SDS011;6504;53.766;9.626;2023-07-16T06:33:43;5.50;;;3.50;;
12871;SDS011;6504;53.766;9.626;2023-07-16T06:36:12;7.50;;;3.87;;
12871;SDS011;6504;53.766;9.626;2023-07-16T06:38:43;7.30;;;3.73;;
12871;SDS011;6504;53.766;9.626;2023-07-16T06:41:11;5.87;;;3.70;;
12871;SDS011;6504;53.766;9.626;2023-07-16T06:43:39;5.27;;;3.30;;
12871;SDS011;6504;53.766;9.626;2023-07-16T06:46:07;7.73;;;3.37;;
12871;SDS011;6504;53.766;9.626;2023-07-16T06:48:35;5.87;;;3.67;;
12871;SDS011;6504;53.766;9.626;2023-07-16T06:51:03;8.07;;;3.60;;
12871;SDS011;6504;53.766;9.626;2023-07-16T06:53:32;7.90;;;3.87;;
12871;SDS011;6504;53.766;9.626;2023-07-16T06:56:01;7.17;;;3.43;;
12871;SDS011;6504;53.766;9.626;2023-07-16T06:58:33;5.67;;;3.70;;
12871;SDS011;6504;53.766;9.626;2023-07-16T07:01:01;5.27;;;3.67;;
12871;SDS011;6504;53.766;9.626;2023-07-16T07:03:29;6.40;;;3.80;;
12871;SDS011;6504;53.766;9.626;2023-07-16T07:06:01;5.37;;;3.33;;
12871;SDS011;6504;53.766;9.626;2023-07-16T07:08:30;6.67;;;3.60;;
12871;SDS011;6504;53.766;9.626;2023-07-16T07:10:58;5.47;;;3.37;;
12871;SDS011;6504;53.766;9.626;2023-07-16T07:13:27;6.20;;;3.60;;
12871;SDS011;6504;53.766;9.626;2023-07-16T07:15:56;6.93;;;3.87;;
12871;SDS011;6504;53.766;9.626;2023-07-16T07:18:24;6.93;;;3.23;;
12871;SDS011;6504;53.766;9.626;2023-07-16T07:20:52;7.37;;;3.63;;
12871;SDS011;6504;53.766;9.626;2023-07-16T07:23:20;3.80;;;3.50;;
12871;SDS011;6504;53.766;9.626;2023-07-16T07:25:49;7.00;;;3.50;;
12871;SDS011;6504;53.766;9.626;2023-07-16T07:28:18;5.93;;;3.50;;
12871;SDS011;6504;53.766;9.626;2023-07-16T07:30:48;7.57;;;3.77;;
12871;SDS011;6504;53.766;9.626;2023-07-16T07:33:16;6.10;;;3.80;;
12871;SDS011;6504;53.766;9.626;2023-07-16T07:35:44;6.33;;;3.20;;
12871;SDS011;6504;53.766;9.626;2023-07-16T07:38:12;8.03;;;3.47;;
12871;SDS011;6504;53.766;9.626;2023-07-16T07:40:42;5.87;;;3.40;;
12871;SDS011;6504;53.766;9.626;2023-07-16T07:43:10;7.87;;;4.03;;
12871;SDS011;6504;53.766;9.626;2023-07-16T07:45:38;7.60;;;3.40;;
12871;SDS011;6504;53.766;9.626;2023-07-16T07:48:07;6.63;;;3.30;;
12871;SDS011;6504;53.766;9.626;2023-07-16T07:50:36;6.23;;;3.50;;
12871;SDS011;6504;53.766;9.626;2023-07-16T07:53:04;5.17;;;3.60;;
12871;SDS011;6504;53.766;9.626;2023-07-16T07:55:33;7.47;;;3.53;;
12871;SDS011;6504;53.766;9.626;2023-07-16T07:58:01;5.70;;;2.97;;
12871;SDS011;6504;53.766;9.626;2023-07-16T08:00:29;5.80;;;3.33;;
12871;SDS011;6504;53.766;9.626;2023-07-16T08:02:57;7.33;;;3.20;;
12871;SDS011;6504;53.766;9.626;2023-07-16T08:05:27;6.63;;;2.87;;
12871;SDS011;6504;53.766;9.626;2023-07-16T08:07:55;7.77;;;3.23;;
12871;SDS011;6504;53.766;9.626;2023-07-16T08:10:23;7.63;;;3.50;;
12871;SDS011;6504;53.766;9.626;2023-07-16T08:12:51;6.83;;;2.97;;
12871;SDS011;6504;53.766;9.626;2023-07-16T08:15:19;7.37;;;3.00;;
12871;SDS011;6504;53.766;9.626;2023-07-16T08:17:48;3.23;;;2.60;;
12871;SDS011;6504;53.766;9.626;2023-07-16T08:20:16;7.50;;;2.90;;
12871;SDS011;6504;53.766;9.626;2023-07-16T08:22:45;4.63;;;2.77;;
12871;SDS011;6504;53.766;9.626;2023-07-16T08:25:13;5.43;;;2.73;;
12871;SDS011;6504;53.766;9.626;2023-07-16T08:27:41;8.57;;;3.17;;
12871;SDS011;6504;53.766;9.626;2023-07-16T08:30:09;4.60;;;2.77;;
12871;SDS011;6504;53.766;9.626;2023-07-16T08:32:38;3.63;;;2.60;;
12871;SDS011;6504;53.766;9.626;2023-07-16T08:35:06;6.27;;;2.73;;
12871;SDS011;6504;53.766;9.626;2023-07-16T08:37:38;5.80;;;2.90;;
12871;SDS011;6504;53.766;9.626;2023-07-16T08:40:08;4.90;;;2.87;;
12871;SDS011;6504;53.766;9.626;2023-07-16T08:42:38;6.23;;;3.17;;
12871;SDS011;6504;53.766;9.626;2023-07-16T08:45:07;3.90;;;2.80;;
12871;SDS011;6504;53.766;9.626;2023-07-16T08:47:38;6.30;;;3.47;;
12871;SDS011;6504;53.766;9.626;2023-07-16T08:50:06;8.10;;;3.20;;
12871;SDS011;6504;53.766;9.626;2023-07-16T08:52:35;4.33;;;2.83;;
12871;SDS011;6504;53.766;9.626;2023-07-16T08:55:03;4.47;;;3.03;;
12871;SDS011;6504;53.766;9.626;2023-07-16T08:57:34;4.03;;;2.70;;
12871;SDS011;6504;53.766;9.626;2023-07-16T09:00:04;4.00;;;3.07;;
12871;SDS011;6504;53.766;9.626;2023-07-16T09:02:34;4.43;;;2.83;;
12871;SDS011;6504;53.766;9.626;2023-07-16T09:05:03;5.00;;;3.50;;
12871;SDS011;6504;53.766;9.626;2023-07-16T09:07:32;4.97;;;3.20;;
12871;SDS011;6504;53.766;9.626;2023-07-16T09:10:01;7.83;;;3.10;;
12871;SDS011;6504;53.766;9.626;2023-07-16T09:12:29;5.13;;;3.30;;
12871;SDS011;6504;53.766;9.626;2023-07-16T09:14:58;6.03;;;3.47;;
12871;SDS011;6504;53.766;9.626;2023-07-16T09:17:26;5.00;;;3.30;;
12871;SDS011;6504;53.766;9.626;2023-07-16T09:19:54;5.60;;;3.50;;
12871;SDS011;6504;53.766;9.626;2023-07-16T09:22:22;6.27;;;3.57;;
12871;SDS011;6504;53.766;9.626;2023-07-16T09:24:50;3.97;;;3.37;;
12871;SDS011;6504;53.766;9.626;2023-07-16T09:27:18;4.50;;;3.30;;
12871;SDS011;6504;53.766;9.626;2023-07-16T09:29:47;4.00;;;3.20;;
12871;SDS011;6504;53.766;9.626;2023-07-16T09:32:18;4.23;;;3.50;;
12871;SDS011;6504;53.766;9.626;2023-07-16T09:34:48;4.43;;;3.73;;
12871;SDS011;6504;53.766;9.626;2023-07-16T09:37:17;5.43;;;3.80;;
12871;SDS011;6504;53.766;9.626;2023-07-16T09:39:46;4.33;;;3.30;;
12871;SDS011;6504;53.766;9.626;2023-07-16T09:42:14;5.33;;;3.40;;
12871;SDS011;6504;53.766;9.626;2023-07-16T09:44:46;5.67;;;3.37;;
12871;SDS011;6504;53.766;9.626;2023-07-16T09:47:15;6.70;;;3.70;;
12871;SDS011;6504;53.766;9.626;2023-07-16T09:49:44;4.63;;;3.50;;
12871;SDS011;6504;53.766;9.626;2023-07-16T09:52:13;4.97;;;3.00;;
12871;SDS011;6504;53.766;9.626;2023-07-16T09:54:42;4.03;;;3.13;;
12871;SDS011;6504;53.766;9.626;2023-07-16T09:57:12;4.27;;;3.50;;
12871;SDS011;6504;53.766;9.626;2023-07-16T09:59:42;5.03;;;3.30;;
12871;SDS011;6504;53.766;9.626;2023-07-16T10:02:12;5.43;;;3.63;;
12871;SDS011;6504;53.766;9.626;2023-07-16T10:04:41;4.87;;;3.30;;
12871;SDS011;6504;53.766;9.626;2023-07-16T10:07:19;6.57;;;3.60;;
12871;SDS011;6504;53.766;9.626;2023-07-16T10:09:51;6.63;;;3.10;;
12871;SDS011;6504;53.766;9.626;2023-07-16T10:12:22;5.47;;;3.30;;
12871;SDS011;6504;53.766;9.626;2023-07-16T10:14:52;6.17;;;3.30;;
12871;SDS011;6504;53.766;9.626;2023-07-16T10:17:23;4.03;;;3.03;;
12871;SDS011;6504;53.766;9.626;2023-07-16T10:19:55;5.80;;;3.00;;
12871;SDS011;6504;53.766;9.626;2023-07-16T10:22:32;4.37;;;3.03;;
12871;SDS011;6504;53.766;9.626;2023-07-16T10:25:02;3.77;;;3.37;;
12871;SDS011;6504;53.766;9.626;2023-07-16T10:27:31;4.40;;;3.10;;
12871;SDS011;6504;53.766;9.626;2023-07-16T10:30:00;4.03;;;2.90;;
12871;SDS011;6504;53.766;9.626;2023-07-16T10:32:30;6.00;;;3.03;;
12871;SDS011;6504;53.766;9.626;2023-07-16T10:35:00;5.33;;;3.57;;
12871;SDS011;6504;53.766;9.626;2023-07-16T10:37:29;5.00;;;3.40;;
12871;SDS011;6504;53.766;9.626;2023-07-16T10:39:59;3.90;;;3.00;;
12871;SDS011;6504;53.766;9.626;2023-07-16T10:42:30;4.67;;;3.30;;
12871;SDS011;6504;53.766;9.626;2023-07-16T10:44:59;5.20;;;3.23;;
12871;SDS011;6504;53.766;9.626;2023-07-16T10:47:31;6.37;;;3.20;;
12871;SDS011;6504;53.766;9.626;2023-07-16T10:50:02;4.97;;;3.27;;
12871;SDS011;6504;53.766;9.626;2023-07-16T10:52:32;4.57;;;3.23;;
12871;SDS011;6504;53.766;9.626;2023-07-16T10:55:01;5.77;;;3.27;;
12871;SDS011;6504;53.766;9.626;2023-07-16T10:57:30;6.20;;;3.17;;
12871;SDS011;6504;53.766;9.626;2023-07-16T10:59:58;4.77;;;3.33;;
12871;SDS011;6504;53.766;9.626;2023-07-16T11:02:27;7.30;;;3.50;;
12871;SDS011;6504;53.766;9.626;2023-07-16T11:04:55;6.17;;;3.70;;
12871;SDS011;6504;53.766;9.626;2023-07-16T11:07:27;3.67;;;3.30;;
12871;SDS011;6504;53.766;9.626;2023-07-16T11:09:55;3.73;;;3.30;;
12871;SDS011;6504;53.766;9.626;2023-07-16T11:12:25;6.33;;;3.43;;
12871;SDS011;6504;53.766;9.626;2023-07-16T11:14:54;6.80;;;3.37;;
12871;SDS011;6504;53.766;9.626;2023-07-16T11:17:23;4.00;;;3.10;;
12871;SDS011;6504;53.766;9.626;2023-07-16T11:19:52;4.23;;;2.97;;
12871;SDS011;6504;53.766;9.626;2023-07-16T11:22:24;5.37;;;3.50;;
12871;SDS011;6504;53.766;9.626;2023-07-16T11:24:54;5.17;;;3.27;;
12871;SDS011;6504;53.766;9.626;2023-07-16T11:27:22;5.73;;;3.07;;
12871;SDS011;6504;53.766;9.626;2023-07-16T11:29:53;3.40;;;3.10;;
12871;SDS011;6504;53.766;9.626;2023-07-16T11:32:26;4.17;;;3.67;;
12871;SDS011;6504;53.766;9.626;2023-07-16T11:34:55;5.23;;;3.30;;
12871;SDS011;6504;53.766;9.626;2023-07-16T11:37:24;5.37;;;3.60;;
12871;SDS011;6504;53.766;9.626;2023-07-16T11:39:56;4.67;;;3.37;;
12871;SDS011;6504;53.766;9.626;2023-07-16T11:42:27;5.80;;;3.53;;
12871;SDS011;6504;53.766;9.626;2023-07-16T11:44:57;6.40;;;3.53;;
12871;SDS011;6504;53.766;9.626;2023-07-16T11:47:26;6.40;;;3.10;;
12871;SDS011;6504;53.766;9.626;2023-07-16T11:49:56;4.53;;;2.90;;
12871;SDS011;6504;53.766;9.626;2023-07-16T11:52:25;3.77;;;2.93;;
12871;SDS011;6504;53.766;9.626;2023-07-16T11:54:56;4.93;;;3.40;;
12871;SDS011;6504;53.766;9.626;2023-07-16T11:57:26;4.23;;;2.93;;
12871;SDS011;6504;53.766;9.626;2023-07-16T11:59:54;5.70;;;3.07;;
12871;SDS011;6504;53.766;9.626;2023-07-16T12:02:24;4.47;;;2.97;;
12871;SDS011;6504;53.766;9.626;2023-07-16T12:04:53;4.60;;;3.03;;
12871;SDS011;6504;53.766;9.626;2023-07-16T12:07:30;6.43;;;3.20;;
12871;SDS011;6504;53.766;9.626;2023-07-16T12:09:59;3.20;;;2.90;;
12871;SDS011;6504;53.766;9.626;2023-07-16T12:12:28;4.57;;;3.13;;
12871;SDS011;6504;53.766;9.626;2023-07-16T12:14:57;4.30;;;3.10;;
12871;SDS011;6504;53.766;9.626;2023-07-16T12:17:26;5.13;;;3.30;;
12871;SDS011;6504;53.766;9.626;2023-07-16T12:19:55;3.97;;;3.00;;
12871;SDS011;6504;53.766;9.626;2023-07-16T12:22:23;4.27;;;3.10;;
12871;SDS011;6504;53.766;9.626;2023-07-16T12:24:51;4.37;;;3.17;;
12871;SDS011;6504;53.766;9.626;2023-07-16T12:27:20;3.80;;;3.00;;
12871;SDS011;6504;53.766;9.626;2023-07-16T12:29:48;6.23;;;3.37;;
12871;SDS011;6504;53.766;9.626;2023-07-16T12:32:18;4.17;;;3.40;;
12871;SDS011;6504;53.766;9.626;2023-07-16T12:34:48;5.60;;;3.20;;
12871;SDS011;6504;53.766;9.626;2023-07-16T12:37:16;6.70;;;3.10;;
12871;SDS011;6504;53.766;9.626;2023-07-16T12:39:44;5.20;;;3.10;;
12871;SDS011;6504;53.766;9.626;2023-07-16T12:42:12;4.73;;;3.40;;
12871;SDS011;6504;53.766;9.626;2023-07-16T12:44:40;4.90;;;3.10;;
12871;SDS011;6504;53.766;9.626;2023-07-16T12:47:08;4.97;;;3.10;;
12871;SDS011;6504;53.766;9.626;2023-07-16T12:49:36;3.87;;;3.13;;
12871;SDS011;6504;53.766;9.626;2023-07-16T12:52:06;4.00;;;3.00;;
12871;SDS011;6504;53.766;9.626;2023-07-16T12:54:35;4.17;;;3.20;;
12871;SDS011;6504;53.766;9.626;2023-07-16T12:57:03;4.27;;;3.47;;
12871;SDS011;6504;53.766;9.626;2023-07-16T12:59:32;5.20;;;3.20;;
12871;SDS011;6504;53.766;9.626;2023-07-16T13:02:00;4.43;;;3.20;;
12871;SDS011;6504;53.766;9.626;2023-07-16T13:04:28;4.47;;;3.00;;
12871;SDS011;6504;53.766;9.626;2023-07-16T13:06:56;4.70;;;3.00;;
12871;SDS011;6504;53.766;9.626;2023-07-16T13:09:26;5.37;;;2.90;;
12871;SDS011;6504;53.766;9.626;2023-07-16T13:11:54;3.77;;;2.90;;
12871;SDS011;6504;53.766;9.626;2023-07-16T13:14:22;4.63;;;3.13;;
12871;SDS011;6504;53.766;9.626;2023-07-16T13:16:50;6.60;;;3.60;;
12871;SDS011;6504;53.766;9.626;2023-07-16T13:19:18;5.03;;;3.13;;
12871;SDS011;6504;53.766;9.626;2023-07-16T13:21:46;5.60;;;2.87;;
12871;SDS011;6504;53.766;9.626;2023-07-16T13:24:14;4.67;;;2.93;;
12871;SDS011;6504;53.766;9.626;2023-07-16T13:26:43;3.50;;;2.67;;
12871;SDS011;6504;53.766;9.626;2023-07-16T13:29:14;5.97;;;2.80;;
12871;SDS011;6504;53.766;9.626;2023-07-16T13:31:42;3.43;;;2.80;;
12871;SDS011;6504;53.766;9.626;2023-07-16T13:34:10;4.17;;;2.77;;
12871;SDS011;6504;53.766;9.626;2023-07-16T13:36:38;3.60;;;3.00;;
12871;SDS011;6504;53.766;9.626;2023-07-16T13:39:06;3.85;;;2.55;;
12871;SDS011;6504;53.766;9.626;2023-07-16T13:41:34;3.53;;;3.10;;
12871;SDS011;6504;53.766;9.626;2023-07-16T13:44:04;4.97;;;2.70;;
12871;SDS011;6504;53.766;9.626;2023-07-16T13:46:32;3.87;;;2.80;;
12871;SDS011;6504;53.766;9.626;2023-07-16T13:49:00;3.83;;;2.83;;
12871;SDS011;6504;53.766;9.626;2023-07-16T13:51:28;4.20;;;2.77;;
12871;SDS011;6504;53.766;9.626;2023-07-16T13:53:56;3.60;;;2.80;;
12871;SDS011;6504;53.766;9.626;2023-07-16T13:56:24;5.73;;;3.00;;
12871;SDS011;6504;53.766;9.626;2023-07-16T13:58:52;5.20;;;3.00;;
12871;SDS011;6504;53.766;9.626;2023-07-16T14:01:22;5.37;;;2.93;;
12871;SDS011;6504;53.766;9.626;2023-07-16T14:03:51;4.90;;;3.20;;
12871;SDS011;6504;53.766;9.626;2023-07-16T14:06:20;5.20;;;3.10;;
12871;SDS011;6504;53.766;9.626;2023-07-16T14:08:48;4.10;;;3.03;;
12871;SDS011;6504;53.766;9.626;2023-07-16T14:11:16;4.03;;;3.03;;
12871;SDS011;6504;53.766;9.626;2023-07-16T14:13:44;3.73;;;2.70;;
12871;SDS011;6504;53.766;9.626;2023-07-16T14:16:14;4.20;;;2.90;;
12871;SDS011;6504;53.766;9.626;2023-07-16T14:18:44;3.50;;;2.67;;
12871;SDS011;6504;53.766;9.626;2023-07-16T14:21:12;4.43;;;3.23;;
12871;SDS011;6504;53.766;9.626;2023-07-16T14:23:40;3.97;;;2.67;;
12871;SDS011;6504;53.766;9.626;2023-07-16T14:26:08;5.30;;;2.90;;
12871;SDS011;6504;53.766;9.626;2023-07-16T14:28:36;4.03;;;2.93;;
12871;SDS011;6504;53.766;9.626;2023-07-16T14:31:04;5.13;;;2.90;;
12871;SDS011;6504;53.766;9.626;2023-07-16T14:33:33;4.87;;;3.20;;
12871;SDS011;6504;53.766;9.626;2023-07-16T14:36:02;4.23;;;3.17;;
12871;SDS011;6504;53.766;9.626;2023-07-16T14:38:30;4.07;;;3.00;;
12871;SDS011;6504;53.766;9.626;2023-07-16T14:40:59;3.77;;;2.87;;
12871;SDS011;6504;53.766;9.626;2023-07-16T14:43:27;5.20;;;2.90;;
12871;SDS011;6504;53.766;9.626;2023-07-16T14:45:55;4.53;;;3.30;;
12871;SDS011;6504;53.766;9.626;2023-07-16T14:48:23;4.37;;;3.37;;
12871;SDS011;6504;53.766;9.626;2023-07-16T14:50:53;5.73;;;3.30;;
12871;SDS011;6504;53.766;9.626;2023-07-16T14:53:23;5.80;;;3.27;;
12871;SDS011;6504;53.766;9.626;2023-07-16T14:55:51;5.07;;;3.10;;
12871;SDS011;6504;53.766;9.626;2023-07-16T14:58:20;5.30;;;3.20;;
12871;SDS011;6504;53.766;9.626;2023-07-16T15:00:48;5.33;;;3.47;;
12871;SDS011;6504;53.766;9.626;2023-07-16T15:03:16;4.33;;;3.30;;
12871;SDS011;6504;53.766;9.626;2023-07-16T15:05:44;5.23;;;3.50;;
12871;SDS011;6504;53.766;9.626;2023-07-16T15:08:13;4.63;;;3.27;;
12871;SDS011;6504;53.766;9.626;2023-07-16T15:10:42;4.57;;;3.20;;